sensor_id;sensor_type;location;lat;lon;timestamp;pressure;altitude;pressure_sealevel;temperature
64488;BMP280;50864;45.050;39.014;2023-09-07T00:00:21;101299.47;;;22.24
64488;BMP280;50864;45.050;39.014;2023-09-07T00:02:47;101304.41;;;22.19
64488;BMP280;50864;45.050;39.014;2023-09-07T00:05:13;101304.66;;;22.14
64488;BMP280;50864;45.050;39.014;2023-09-07T00:07:39;101311.97;;;22.10
64488;BMP280;50864;45.050;39.014;2023-09-07T00:10:06;101314.94;;;22.05
64488;BMP280;50864;45.050;39.014;2023-09-07T00:12:33;101305.53;;;22.02
64488;BMP280;50864;45.050;39.014;2023-09-07T00:14:58;101313.97;;;21.97
64488;BMP280;50864;45.050;39.014;2023-09-07T00:17:25;101311.06;;;21.90
64488;BMP280;50864;45.050;39.014;2023-09-07T00:19:51;101309.75;;;21.84
64488;BMP280;50864;45.050;39.014;2023-09-07T00:22:18;101311.50;;;21.76
64488;BMP280;50864;45.050;39.014;2023-09-07T00:24:44;101306.66;;;21.70
64488;BMP280;50864;45.050;39.014;2023-09-07T00:27:10;101310.34;;;21.62
64488;BMP280;50864;45.050;39.014;2023-09-07T00:29:38;101308.22;;;21.55
64488;BMP280;50864;45.050;39.014;2023-09-07T00:32:04;101311.87;;;21.47
64488;BMP280;50864;45.050;39.014;2023-09-07T00:34:30;101306.94;;;21.37
64488;BMP280;50864;45.050;39.014;2023-09-07T00:36:57;101312.19;;;21.30
64488;BMP280;50864;45.050;39.014;2023-09-07T00:39:23;101311.19;;;21.22
64488;BMP280;50864;45.050;39.014;2023-09-07T00:41:49;101301.69;;;21.16
64488;BMP280;50864;45.050;39.014;2023-09-07T00:44:15;101315.88;;;21.10
64488;BMP280;50864;45.050;39.014;2023-09-07T00:46:42;101305.13;;;21.01
64488;BMP280;50864;45.050;39.014;2023-09-07T00:49:11;101308.44;;;20.95
64488;BMP280;50864;45.050;39.014;2023-09-07T00:51:38;101297.44;;;20.91
64488;BMP280;50864;45.050;39.014;2023-09-07T00:54:04;101302.78;;;20.88
64488;BMP280;50864;45.050;39.014;2023-09-07T00:56:31;101299.19;;;20.84
64488;BMP280;50864;45.050;39.014;2023-09-07T00:58:58;101299.41;;;20.79
64488;BMP280;50864;45.050;39.014;2023-09-07T01:01:27;101298.81;;;20.73
64488;BMP280;50864;45.050;39.014;2023-09-07T01:03:53;101301.47;;;20.69
64488;BMP280;50864;45.050;39.014;2023-09-07T01:06:30;101300.22;;;20.67
64488;BMP280;50864;45.050;39.014;2023-09-07T01:09:02;101300.44;;;20.62
64488;BMP280;50864;45.050;39.014;2023-09-07T01:11:36;101301.03;;;20.55
64488;BMP280;50864;45.050;39.014;2023-09-07T01:14:03;101296.94;;;20.49
64488;BMP280;50864;45.050;39.014;2023-09-07T01:16:30;101291.28;;;20.42
64488;BMP280;50864;45.050;39.014;2023-09-07T01:19:01;101292.09;;;20.43
64488;BMP280;50864;45.050;39.014;2023-09-07T01:21:34;101293.53;;;20.40
64488;BMP280;50864;45.050;39.014;2023-09-07T01:24:03;101299.97;;;20.36
64488;BMP280;50864;45.050;39.014;2023-09-07T01:26:30;101289.81;;;20.33
64488;BMP280;50864;45.050;39.014;2023-09-07T01:28:56;101292.53;;;20.33
64488;BMP280;50864;45.050;39.014;2023-09-07T01:31:22;101301.50;;;20.33
64488;BMP280;50864;45.050;39.014;2023-09-07T01:33:48;101290.94;;;20.32
64488;BMP280;50864;45.050;39.014;2023-09-07T01:36:14;101292.75;;;20.28
64488;BMP280;50864;45.050;39.014;2023-09-07T01:38:40;101284.16;;;20.26
64488;BMP280;50864;45.050;39.014;2023-09-07T01:41:07;101288.78;;;20.25
64488;BMP280;50864;45.050;39.014;2023-09-07T01:43:33;101282.66;;;20.28
64488;BMP280;50864;45.050;39.014;2023-09-07T01:45:59;101282.34;;;20.30
64488;BMP280;50864;45.050;39.014;2023-09-07T01:48:25;101281.19;;;20.31
64488;BMP280;50864;45.050;39.014;2023-09-07T01:50:53;101278.81;;;20.29
64488;BMP280;50864;45.050;39.014;2023-09-07T01:53:19;101280.28;;;20.27
64488;BMP280;50864;45.050;39.014;2023-09-07T01:55:46;101277.44;;;20.23
64488;BMP280;50864;45.050;39.014;2023-09-07T01:58:13;101281.44;;;20.26
64488;BMP280;50864;45.050;39.014;2023-09-07T02:00:39;101281.44;;;20.26
64488;BMP280;50864;45.050;39.014;2023-09-07T02:03:06;101277.78;;;20.22
64488;BMP280;50864;45.050;39.014;2023-09-07T02:05:32;101274.50;;;20.16
64488;BMP280;50864;45.050;39.014;2023-09-07T02:07:58;101281.88;;;20.15
64488;BMP280;50864;45.050;39.014;2023-09-07T02:10:24;101279.72;;;20.09
64488;BMP280;50864;45.050;39.014;2023-09-07T02:12:50;101284.69;;;20.07
64488;BMP280;50864;45.050;39.014;2023-09-07T02:15:17;101291.13;;;20.02
64488;BMP280;50864;45.050;39.014;2023-09-07T02:17:43;101283.97;;;19.98
64488;BMP280;50864;45.050;39.014;2023-09-07T02:20:11;101284.66;;;19.95
64488;BMP280;50864;45.050;39.014;2023-09-07T02:22:38;101280.69;;;19.92
64488;BMP280;50864;45.050;39.014;2023-09-07T02:25:05;101276.75;;;19.90
64488;BMP280;50864;45.050;39.014;2023-09-07T02:27:35;101284.44;;;19.88
64488;BMP280;50864;45.050;39.014;2023-09-07T02:30:03;101285.44;;;19.83
64488;BMP280;50864;45.050;39.014;2023-09-07T02:32:29;101289.03;;;19.75
64488;BMP280;50864;45.050;39.014;2023-09-07T02:34:55;101278.38;;;19.70
64488;BMP280;50864;45.050;39.014;2023-09-07T02:37:21;101292.31;;;19.69
64488;BMP280;50864;45.050;39.014;2023-09-07T02:39:47;101291.06;;;19.66
64488;BMP280;50864;45.050;39.014;2023-09-07T02:42:12;101288.19;;;19.62
64488;BMP280;50864;45.050;39.014;2023-09-07T02:44:39;101297.81;;;19.60
64488;BMP280;50864;45.050;39.014;2023-09-07T02:47:05;101299.72;;;19.59
64488;BMP280;50864;45.050;39.014;2023-09-07T02:49:31;101307.28;;;19.54
64488;BMP280;50864;45.050;39.014;2023-09-07T02:51:57;101303.66;;;19.50
64488;BMP280;50864;45.050;39.014;2023-09-07T02:54:23;101302.06;;;19.49
64488;BMP280;50864;45.050;39.014;2023-09-07T02:56:49;101310.56;;;19.47
64488;BMP280;50864;45.050;39.014;2023-09-07T02:59:16;101313.12;;;19.44
64488;BMP280;50864;45.050;39.014;2023-09-07T03:01:41;101309.53;;;19.40
64488;BMP280;50864;45.050;39.014;2023-09-07T03:04:07;101309.03;;;19.38
64488;BMP280;50864;45.050;39.014;2023-09-07T03:06:34;101306.62;;;19.36
64488;BMP280;50864;45.050;39.014;2023-09-07T03:09:00;101308.44;;;19.32
64488;BMP280;50864;45.050;39.014;2023-09-07T03:11:27;101311.84;;;19.29
64488;BMP280;50864;45.050;39.014;2023-09-07T03:13:56;101318.69;;;19.27
64488;BMP280;50864;45.050;39.014;2023-09-07T03:16:22;101308.81;;;19.22
64488;BMP280;50864;45.050;39.014;2023-09-07T03:18:48;101313.47;;;19.22
64488;BMP280;50864;45.050;39.014;2023-09-07T03:21:15;101311.53;;;19.22
64488;BMP280;50864;45.050;39.014;2023-09-07T03:23:42;101310.41;;;19.23
64488;BMP280;50864;45.050;39.014;2023-09-07T03:26:10;101315.22;;;19.26
64488;BMP280;50864;45.050;39.014;2023-09-07T03:28:38;101313.25;;;19.27
64488;BMP280;50864;45.050;39.014;2023-09-07T03:31:04;101325.50;;;19.33
64488;BMP280;50864;45.050;39.014;2023-09-07T03:33:30;101315.84;;;19.44
64488;BMP280;50864;45.050;39.014;2023-09-07T03:35:56;101326.38;;;19.66
64488;BMP280;50864;45.050;39.014;2023-09-07T03:38:24;101326.44;;;19.90
64488;BMP280;50864;45.050;39.014;2023-09-07T03:40:50;101326.28;;;20.19
64488;BMP280;50864;45.050;39.014;2023-09-07T03:43:18;101329.56;;;20.49
64488;BMP280;50864;45.050;39.014;2023-09-07T03:45:45;101324.78;;;20.83
64488;BMP280;50864;45.050;39.014;2023-09-07T03:48:11;101323.78;;;21.15
64488;BMP280;50864;45.050;39.014;2023-09-07T03:50:37;101320.41;;;21.46
64488;BMP280;50864;45.050;39.014;2023-09-07T03:53:03;101325.22;;;21.80
64488;BMP280;50864;45.050;39.014;2023-09-07T03:55:29;101332.28;;;22.12
64488;BMP280;50864;45.050;39.014;2023-09-07T03:57:55;101330.62;;;22.39
64488;BMP280;50864;45.050;39.014;2023-09-07T04:00:22;101335.88;;;22.67
64488;BMP280;50864;45.050;39.014;2023-09-07T04:02:49;101338.41;;;22.91
64488;BMP280;50864;45.050;39.014;2023-09-07T04:05:15;101336.09;;;23.12
64488;BMP280;50864;45.050;39.014;2023-09-07T04:07:41;101339.75;;;23.39
64488;BMP280;50864;45.050;39.014;2023-09-07T04:10:08;101337.81;;;23.62
64488;BMP280;50864;45.050;39.014;2023-09-07T04:12:34;101330.31;;;23.78
64488;BMP280;50864;45.050;39.014;2023-09-07T04:15:02;101337.12;;;23.88
64488;BMP280;50864;45.050;39.014;2023-09-07T04:17:28;101328.87;;;24.07
64488;BMP280;50864;45.050;39.014;2023-09-07T04:19:55;101337.03;;;24.30
64488;BMP280;50864;45.050;39.014;2023-09-07T04:22:21;101338.03;;;24.48
64488;BMP280;50864;45.050;39.014;2023-09-07T04:24:48;101343.38;;;24.63
64488;BMP280;50864;45.050;39.014;2023-09-07T04:27:15;101334.69;;;24.88
64488;BMP280;50864;45.050;39.014;2023-09-07T04:29:41;101339.16;;;25.03
64488;BMP280;50864;45.050;39.014;2023-09-07T04:32:07;101342.84;;;25.17
64488;BMP280;50864;45.050;39.014;2023-09-07T04:34:33;101350.84;;;25.29
64488;BMP280;50864;45.050;39.014;2023-09-07T04:36:59;101343.88;;;25.36
64488;BMP280;50864;45.050;39.014;2023-09-07T04:39:25;101344.03;;;25.50
64488;BMP280;50864;45.050;39.014;2023-09-07T04:41:51;101329.63;;;25.63
64488;BMP280;50864;45.050;39.014;2023-09-07T04:44:18;101339.53;;;25.75
64488;BMP280;50864;45.050;39.014;2023-09-07T04:46:45;101334.19;;;25.92
64488;BMP280;50864;45.050;39.014;2023-09-07T04:49:11;101342.56;;;26.14
64488;BMP280;50864;45.050;39.014;2023-09-07T04:51:36;101338.78;;;26.36
64488;BMP280;50864;45.050;39.014;2023-09-07T04:54:03;101333.38;;;26.53
64488;BMP280;50864;45.050;39.014;2023-09-07T04:56:30;101333.88;;;26.73
64488;BMP280;50864;45.050;39.014;2023-09-07T04:58:56;101334.75;;;26.98
64488;BMP280;50864;45.050;39.014;2023-09-07T05:01:22;101330.09;;;27.27
64488;BMP280;50864;45.050;39.014;2023-09-07T05:03:48;101338.75;;;27.54
64488;BMP280;50864;45.050;39.014;2023-09-07T05:06:16;101334.03;;;27.79
64488;BMP280;50864;45.050;39.014;2023-09-07T05:08:43;101328.50;;;27.97
64488;BMP280;50864;45.050;39.014;2023-09-07T05:11:10;101337.94;;;28.03
64488;BMP280;50864;45.050;39.014;2023-09-07T05:13:36;101339.88;;;28.13
64488;BMP280;50864;45.050;39.014;2023-09-07T05:16:02;101343.75;;;28.43
64488;BMP280;50864;45.050;39.014;2023-09-07T05:18:30;101336.16;;;28.65
64488;BMP280;50864;45.050;39.014;2023-09-07T05:20:56;101338.78;;;28.90
64488;BMP280;50864;45.050;39.014;2023-09-07T05:23:23;101346.94;;;29.07
64488;BMP280;50864;45.050;39.014;2023-09-07T05:25:54;101347.72;;;29.08
64488;BMP280;50864;45.050;39.014;2023-09-07T05:28:21;101342.28;;;29.01
64488;BMP280;50864;45.050;39.014;2023-09-07T05:30:48;101346.19;;;29.00
64488;BMP280;50864;45.050;39.014;2023-09-07T05:33:15;101342.22;;;29.04
64488;BMP280;50864;45.050;39.014;2023-09-07T05:35:42;101347.38;;;29.02
64488;BMP280;50864;45.050;39.014;2023-09-07T05:38:09;101343.44;;;29.07
64488;BMP280;50864;45.050;39.014;2023-09-07T05:40:38;101340.62;;;29.10
64488;BMP280;50864;45.050;39.014;2023-09-07T05:43:04;101350.72;;;29.28
64488;BMP280;50864;45.050;39.014;2023-09-07T05:45:35;101346.69;;;29.43
64488;BMP280;50864;45.050;39.014;2023-09-07T05:48:03;101352.37;;;29.66
64488;BMP280;50864;45.050;39.014;2023-09-07T05:50:29;101353.41;;;29.82
64488;BMP280;50864;45.050;39.014;2023-09-07T05:52:55;101343.41;;;29.99
64488;BMP280;50864;45.050;39.014;2023-09-07T05:55:21;101347.38;;;30.28
64488;BMP280;50864;45.050;39.014;2023-09-07T05:57:49;101347.97;;;30.46
64488;BMP280;50864;45.050;39.014;2023-09-07T06:00:15;101346.69;;;30.81
64488;BMP280;50864;45.050;39.014;2023-09-07T06:02:45;101341.97;;;31.05
64488;BMP280;50864;45.050;39.014;2023-09-07T06:05:11;101350.78;;;31.23
64488;BMP280;50864;45.050;39.014;2023-09-07T06:07:37;101349.63;;;31.20
64488;BMP280;50864;45.050;39.014;2023-09-07T06:10:04;101349.16;;;31.25
64488;BMP280;50864;45.050;39.014;2023-09-07T06:12:32;101354.19;;;31.30
64488;BMP280;50864;45.050;39.014;2023-09-07T06:14:59;101357.22;;;31.40
64488;BMP280;50864;45.050;39.014;2023-09-07T06:17:27;101360.94;;;31.53
64488;BMP280;50864;45.050;39.014;2023-09-07T06:19:54;101360.84;;;31.79
64488;BMP280;50864;45.050;39.014;2023-09-07T06:22:20;101357.53;;;32.08
64488;BMP280;50864;45.050;39.014;2023-09-07T06:24:47;101355.97;;;32.26
64488;BMP280;50864;45.050;39.014;2023-09-07T06:27:13;101365.13;;;32.43
64488;BMP280;50864;45.050;39.014;2023-09-07T06:29:39;101366.03;;;32.56
64488;BMP280;50864;45.050;39.014;2023-09-07T06:32:05;101361.63;;;32.58
64488;BMP280;50864;45.050;39.014;2023-09-07T06:34:31;101364.03;;;32.72
64488;BMP280;50864;45.050;39.014;2023-09-07T06:36:57;101362.50;;;32.88
64488;BMP280;50864;45.050;39.014;2023-09-07T06:39:23;101367.12;;;33.10
64488;BMP280;50864;45.050;39.014;2023-09-07T06:41:49;101367.28;;;33.19
64488;BMP280;50864;45.050;39.014;2023-09-07T06:44:16;101365.47;;;33.13
64488;BMP280;50864;45.050;39.014;2023-09-07T06:46:42;101369.28;;;33.03
64488;BMP280;50864;45.050;39.014;2023-09-07T06:49:08;101362.59;;;33.00
64488;BMP280;50864;45.050;39.014;2023-09-07T06:51:35;101365.53;;;32.93
64488;BMP280;50864;45.050;39.014;2023-09-07T06:54:01;101366.31;;;32.77
64488;BMP280;50864;45.050;39.014;2023-09-07T06:56:27;101357.06;;;33.00
64488;BMP280;50864;45.050;39.014;2023-09-07T06:58:54;101359.75;;;33.20
64488;BMP280;50864;45.050;39.014;2023-09-07T07:01:21;101359.19;;;33.25
64488;BMP280;50864;45.050;39.014;2023-09-07T07:03:47;101352.56;;;33.51
64488;BMP280;50864;45.050;39.014;2023-09-07T07:06:13;101353.06;;;33.62
64488;BMP280;50864;45.050;39.014;2023-09-07T07:08:39;101351.84;;;33.63
64488;BMP280;50864;45.050;39.014;2023-09-07T07:11:05;101345.72;;;33.55
64488;BMP280;50864;45.050;39.014;2023-09-07T07:13:31;101347.91;;;33.48
64488;BMP280;50864;45.050;39.014;2023-09-07T07:15:58;101340.44;;;33.61
64488;BMP280;50864;45.050;39.014;2023-09-07T07:18:23;101350.06;;;33.56
64488;BMP280;50864;45.050;39.014;2023-09-07T07:20:49;101342.37;;;33.32
64488;BMP280;50864;45.050;39.014;2023-09-07T07:23:17;101339.91;;;33.50
64488;BMP280;50864;45.050;39.014;2023-09-07T07:25:42;101349.53;;;33.62
64488;BMP280;50864;45.050;39.014;2023-09-07T07:28:09;101339.91;;;33.50
64488;BMP280;50864;45.050;39.014;2023-09-07T07:30:37;101338.47;;;33.45
64488;BMP280;50864;45.050;39.014;2023-09-07T07:33:06;101340.72;;;33.34
64488;BMP280;50864;45.050;39.014;2023-09-07T07:35:35;101340.59;;;33.54
64488;BMP280;50864;45.050;39.014;2023-09-07T07:38:02;101338.63;;;33.67
64488;BMP280;50864;45.050;39.014;2023-09-07T07:40:34;101340.91;;;33.43
64488;BMP280;50864;45.050;39.014;2023-09-07T07:43:01;101345.81;;;33.23
64488;BMP280;50864;45.050;39.014;2023-09-07T07:45:28;101339.56;;;32.87
64488;BMP280;50864;45.050;39.014;2023-09-07T07:47:55;101339.06;;;32.56
64488;BMP280;50864;45.050;39.014;2023-09-07T07:50:22;101338.84;;;32.67
64488;BMP280;50864;45.050;39.014;2023-09-07T07:52:48;101343.84;;;32.72
64488;BMP280;50864;45.050;39.014;2023-09-07T07:55:14;101323.44;;;32.46
64488;BMP280;50864;45.050;39.014;2023-09-07T07:57:40;101339.41;;;32.23
64488;BMP280;50864;45.050;39.014;2023-09-07T08:00:08;101336.47;;;31.94
64488;BMP280;50864;45.050;39.014;2023-09-07T08:02:39;101320.78;;;31.68
64488;BMP280;50864;45.050;39.014;2023-09-07T08:05:06;101336.66;;;31.83
64488;BMP280;50864;45.050;39.014;2023-09-07T08:07:33;101327.69;;;31.95
64488;BMP280;50864;45.050;39.014;2023-09-07T08:09:59;101319.81;;;32.33
64488;BMP280;50864;45.050;39.014;2023-09-07T08:12:27;101329.22;;;32.55
64488;BMP280;50864;45.050;39.014;2023-09-07T08:14:54;101332.22;;;32.45
64488;BMP280;50864;45.050;39.014;2023-09-07T08:17:21;101321.94;;;32.26
64488;BMP280;50864;45.050;39.014;2023-09-07T08:19:47;101324.56;;;32.33
64488;BMP280;50864;45.050;39.014;2023-09-07T08:22:14;101333.69;;;32.49
64488;BMP280;50864;45.050;39.014;2023-09-07T08:24:42;101318.19;;;32.52
64488;BMP280;50864;45.050;39.014;2023-09-07T08:27:10;101319.88;;;32.30
64488;BMP280;50864;45.050;39.014;2023-09-07T08:29:42;101313.62;;;32.26
64488;BMP280;50864;45.050;39.014;2023-09-07T08:32:13;101327.94;;;32.24
64488;BMP280;50864;45.050;39.014;2023-09-07T08:34:40;101309.06;;;32.35
64488;BMP280;50864;45.050;39.014;2023-09-07T08:37:07;101322.59;;;32.49
64488;BMP280;50864;45.050;39.014;2023-09-07T08:39:35;101321.75;;;32.52
64488;BMP280;50864;45.050;39.014;2023-09-07T08:42:02;101311.03;;;32.54
64488;BMP280;50864;45.050;39.014;2023-09-07T08:44:29;101311.37;;;32.56
64488;BMP280;50864;45.050;39.014;2023-09-07T08:46:55;101310.03;;;32.29
64488;BMP280;50864;45.050;39.014;2023-09-07T08:49:23;101318.34;;;32.29
64488;BMP280;50864;45.050;39.014;2023-09-07T08:51:50;101309.16;;;32.32
64488;BMP280;50864;45.050;39.014;2023-09-07T08:54:17;101313.69;;;32.22
64488;BMP280;50864;45.050;39.014;2023-09-07T08:56:45;101310.31;;;32.50
64488;BMP280;50864;45.050;39.014;2023-09-07T08:59:11;101320.12;;;32.55
64488;BMP280;50864;45.050;39.014;2023-09-07T09:01:37;101317.88;;;32.30
64488;BMP280;50864;45.050;39.014;2023-09-07T09:04:04;101311.94;;;32.12
64488;BMP280;50864;45.050;39.014;2023-09-07T09:06:30;101303.38;;;32.07
64488;BMP280;50864;45.050;39.014;2023-09-07T09:08:57;101291.56;;;32.38
64488;BMP280;50864;45.050;39.014;2023-09-07T09:11:24;101303.75;;;32.44
64488;BMP280;50864;45.050;39.014;2023-09-07T09:13:52;101305.31;;;32.45
64488;BMP280;50864;45.050;39.014;2023-09-07T09:16:19;101307.28;;;32.45
64488;BMP280;50864;45.050;39.014;2023-09-07T09:18:52;101304.00;;;32.50
64488;BMP280;50864;45.050;39.014;2023-09-07T09:21:20;101314.81;;;32.44
64488;BMP280;50864;45.050;39.014;2023-09-07T09:23:51;101312.56;;;32.39
64488;BMP280;50864;45.050;39.014;2023-09-07T09:26:18;101306.03;;;32.30
64488;BMP280;50864;45.050;39.014;2023-09-07T09:28:45;101302.31;;;32.36
64488;BMP280;50864;45.050;39.014;2023-09-07T09:31:14;101306.75;;;32.50
64488;BMP280;50864;45.050;39.014;2023-09-07T09:33:41;101296.88;;;32.49
64488;BMP280;50864;45.050;39.014;2023-09-07T09:36:08;101298.72;;;32.55
64488;BMP280;50864;45.050;39.014;2023-09-07T09:38:35;101294.53;;;32.47
64488;BMP280;50864;45.050;39.014;2023-09-07T09:41:01;101301.41;;;32.59
64488;BMP280;50864;45.050;39.014;2023-09-07T09:43:30;101294.97;;;32.46
64488;BMP280;50864;45.050;39.014;2023-09-07T09:45:57;101287.78;;;32.48
64488;BMP280;50864;45.050;39.014;2023-09-07T09:48:24;101290.66;;;32.45
64488;BMP280;50864;45.050;39.014;2023-09-07T09:50:51;101281.88;;;32.30
64488;BMP280;50864;45.050;39.014;2023-09-07T09:53:17;101291.16;;;32.40
64488;BMP280;50864;45.050;39.014;2023-09-07T09:55:49;101279.94;;;32.27
64488;BMP280;50864;45.050;39.014;2023-09-07T09:58:18;101292.84;;;32.18
64488;BMP280;50864;45.050;39.014;2023-09-07T10:00:45;101281.22;;;31.87
64488;BMP280;50864;45.050;39.014;2023-09-07T10:03:20;101278.25;;;31.78
64488;BMP280;50864;45.050;39.014;2023-09-07T10:05:49;101264.69;;;32.03
64488;BMP280;50864;45.050;39.014;2023-09-07T10:08:18;101274.78;;;32.29
64488;BMP280;50864;45.050;39.014;2023-09-07T10:10:49;101277.66;;;32.06
64488;BMP280;50864;45.050;39.014;2023-09-07T10:13:16;101271.06;;;32.00
64488;BMP280;50864;45.050;39.014;2023-09-07T10:15:43;101270.41;;;32.12
64488;BMP280;50864;45.050;39.014;2023-09-07T10:18:12;101265.59;;;32.16
64488;BMP280;50864;45.050;39.014;2023-09-07T10:20:58;101265.75;;;32.25
64488;BMP280;50864;45.050;39.014;2023-09-07T10:23:42;101260.69;;;32.40
64488;BMP280;50864;45.050;39.014;2023-09-07T10:26:15;101251.41;;;32.46
64488;BMP280;50864;45.050;39.014;2023-09-07T10:28:42;101257.06;;;32.59
64488;BMP280;50864;45.050;39.014;2023-09-07T10:33:41;101259.06;;;32.58
64488;BMP280;50864;45.050;39.014;2023-09-07T10:36:07;101253.84;;;32.44
64488;BMP280;50864;45.050;39.014;2023-09-07T10:38:36;101259.12;;;32.39
64488;BMP280;50864;45.050;39.014;2023-09-07T10:41:04;101243.34;;;32.36
64488;BMP280;50864;45.050;39.014;2023-09-07T10:43:32;101245.75;;;32.18
64488;BMP280;50864;45.050;39.014;2023-09-07T10:46:00;101245.50;;;32.28
64488;BMP280;50864;45.050;39.014;2023-09-07T10:48:29;101244.84;;;32.40
64488;BMP280;50864;45.050;39.014;2023-09-07T10:50:55;101240.94;;;32.54
64488;BMP280;50864;45.050;39.014;2023-09-07T10:53:30;101250.97;;;32.64
64488;BMP280;50864;45.050;39.014;2023-09-07T10:55:59;101245.00;;;32.49
64488;BMP280;50864;45.050;39.014;2023-09-07T10:58:27;101238.09;;;32.41
64488;BMP280;50864;45.050;39.014;2023-09-07T11:00:54;101236.25;;;32.35
64488;BMP280;50864;45.050;39.014;2023-09-07T11:03:22;101239.53;;;32.30
64488;BMP280;50864;45.050;39.014;2023-09-07T11:05:51;101237.66;;;32.27
64488;BMP280;50864;45.050;39.014;2023-09-07T11:08:20;101220.25;;;32.26
64488;BMP280;50864;45.050;39.014;2023-09-07T11:10:50;101237.66;;;32.27
64488;BMP280;50864;45.050;39.014;2023-09-07T11:13:17;101230.56;;;32.42
64488;BMP280;50864;45.050;39.014;2023-09-07T11:15:43;101229.34;;;32.43
64488;BMP280;50864;45.050;39.014;2023-09-07T11:18:10;101228.66;;;32.55
64488;BMP280;50864;45.050;39.014;2023-09-07T11:20:36;101216.25;;;32.43
64488;BMP280;50864;45.050;39.014;2023-09-07T11:23:05;101221.44;;;32.25
64488;BMP280;50864;45.050;39.014;2023-09-07T11:25:37;101221.78;;;32.27
64488;BMP280;50864;45.050;39.014;2023-09-07T11:28:06;101225.69;;;32.30
64488;BMP280;50864;45.050;39.014;2023-09-07T11:30:33;101220.25;;;32.42
64488;BMP280;50864;45.050;39.014;2023-09-07T11:33:04;101204.62;;;32.48
64488;BMP280;50864;45.050;39.014;2023-09-07T11:35:30;101209.19;;;32.58
64488;BMP280;50864;45.050;39.014;2023-09-07T11:37:56;101215.38;;;32.62
64488;BMP280;50864;45.050;39.014;2023-09-07T11:40:23;101202.38;;;32.59
64488;BMP280;50864;45.050;39.014;2023-09-07T11:42:49;101209.31;;;32.51
64488;BMP280;50864;45.050;39.014;2023-09-07T11:45:15;101210.78;;;32.72
64488;BMP280;50864;45.050;39.014;2023-09-07T11:47:41;101205.03;;;32.66
64488;BMP280;50864;45.050;39.014;2023-09-07T11:50:07;101208.12;;;32.52
64488;BMP280;50864;45.050;39.014;2023-09-07T11:52:33;101202.22;;;32.34
64488;BMP280;50864;45.050;39.014;2023-09-07T11:55:00;101201.69;;;32.23
64488;BMP280;50864;45.050;39.014;2023-09-07T11:57:27;101198.50;;;32.41
64488;BMP280;50864;45.050;39.014;2023-09-07T11:59:53;101209.31;;;32.51
64488;BMP280;50864;45.050;39.014;2023-09-07T12:02:20;101210.56;;;32.50
64488;BMP280;50864;45.050;39.014;2023-09-07T12:04:47;101211.31;;;32.67
64488;BMP280;50864;45.050;39.014;2023-09-07T12:07:14;101214.53;;;32.65
64488;BMP280;50864;45.050;39.014;2023-09-07T12:09:41;101198.88;;;32.59
64488;BMP280;50864;45.050;39.014;2023-09-07T12:12:08;101205.78;;;32.51
64488;BMP280;50864;45.050;39.014;2023-09-07T12:14:34;101202.22;;;32.34
64488;BMP280;50864;45.050;39.014;2023-09-07T12:17:00;101204.31;;;32.30
64488;BMP280;50864;45.050;39.014;2023-09-07T12:19:26;101201.00;;;32.35
64488;BMP280;50864;45.050;39.014;2023-09-07T12:21:52;101204.28;;;32.46
64488;BMP280;50864;45.050;39.014;2023-09-07T12:24:18;101205.56;;;32.45
64488;BMP280;50864;45.050;39.014;2023-09-07T12:26:45;101204.56;;;32.36
64488;BMP280;50864;45.050;39.014;2023-09-07T12:29:11;101197.22;;;32.29
64488;BMP280;50864;45.050;39.014;2023-09-07T12:31:40;101196.84;;;32.27
64488;BMP280;50864;45.050;39.014;2023-09-07T12:34:07;101194.44;;;32.29
64488;BMP280;50864;45.050;39.014;2023-09-07T12:36:34;101198.50;;;32.41
64488;BMP280;50864;45.050;39.014;2023-09-07T12:39:00;101200.16;;;32.38
64488;BMP280;50864;45.050;39.014;2023-09-07T12:41:29;101203.91;;;32.32
64488;BMP280;50864;45.050;39.014;2023-09-07T12:43:56;101202.75;;;32.29
64488;BMP280;50864;45.050;39.014;2023-09-07T12:46:24;101194.44;;;32.29
64488;BMP280;50864;45.050;39.014;2023-09-07T12:48:51;101202.66;;;32.33
64488;BMP280;50864;45.050;39.014;2023-09-07T12:51:19;101195.38;;;32.23
64488;BMP280;50864;45.050;39.014;2023-09-07T12:53:45;101198.12;;;32.23
64488;BMP280;50864;45.050;39.014;2023-09-07T12:56:12;101206.56;;;32.19
64488;BMP280;50864;45.050;39.014;2023-09-07T12:58:39;101200.75;;;32.14
64488;BMP280;50864;45.050;39.014;2023-09-07T13:01:05;101192.84;;;32.12
64488;BMP280;50864;45.050;39.014;2023-09-07T13:03:32;101201.69;;;32.07
64488;BMP280;50864;45.050;39.014;2023-09-07T13:05:58;101193.94;;;31.98
64488;BMP280;50864;45.050;39.014;2023-09-07T13:08:24;101187.41;;;31.92
64488;BMP280;50864;45.050;39.014;2023-09-07T13:10:51;101193.41;;;31.87
64488;BMP280;50864;45.050;39.014;2023-09-07T13:13:17;101187.00;;;31.90
64488;BMP280;50864;45.050;39.014;2023-09-07T13:15:43;101195.75;;;31.89
64488;BMP280;50864;45.050;39.014;2023-09-07T13:18:09;101189.50;;;31.85
64488;BMP280;50864;45.050;39.014;2023-09-07T13:20:36;101189.50;;;31.85
64488;BMP280;50864;45.050;39.014;2023-09-07T13:23:02;101190.47;;;31.78
64488;BMP280;50864;45.050;39.014;2023-09-07T13:25:29;101180.97;;;31.60
64488;BMP280;50864;45.050;39.014;2023-09-07T13:27:55;101179.53;;;31.32
64488;BMP280;50864;45.050;39.014;2023-09-07T13:30:20;101175.91;;;31.35
64488;BMP280;50864;45.050;39.014;2023-09-07T13:32:47;101179.00;;;31.41
64488;BMP280;50864;45.050;39.014;2023-09-07T13:35:16;101180.81;;;31.47
64488;BMP280;50864;45.050;39.014;2023-09-07T13:37:45;101178.47;;;31.46
64488;BMP280;50864;45.050;39.014;2023-09-07T13:40:11;101182.59;;;31.38
64488;BMP280;50864;45.050;39.014;2023-09-07T13:42:38;101191.38;;;31.33
64488;BMP280;50864;45.050;39.014;2023-09-07T13:45:06;101181.97;;;31.30